Hadley Wood, United Kingdom
Current Conditions -  °F | °C
As of 1:50 PM on Monday 26 Jan 2015 (Local Time) from EGWU Reporting Station
Broken Clouds Broken Clouds  
Wind Chill: 43°   Ceiling: 22000
Heat Index: 48°   Visibility: 6mi
Dew Point: 36°   Wind: 13mph
Humidity: 62%   Direction: 330°NNW
Pressure: 30.21"   Gusts: NA
Location:  51.67°N, 0.17°W
Report Text: EGWU 261350Z 33011KT 9999 FEW020 SCT030 BKN220 09/02 Q1023 BLU NOSIG
Loading
Personal Weather Stations






























Interactive Weather Map New forecast layout! Learn more

10-Day Weather Forecast

Advertisements
Track Severe Weather on mobile